createdAt,value
2019-04-19T00:01:02.707Z,71.96
2019-04-19T00:03:32.167Z,72.06
2019-04-19T00:06:13.764Z,72.23
2019-04-19T00:08:49.481Z,72.27
2019-04-19T00:11:15.572Z,72.56
2019-04-19T00:13:36.773Z,72.63
2019-04-19T00:16:06.684Z,72.84
2019-04-19T00:18:36.980Z,72.85
2019-04-19T00:21:24.912Z,72.89
2019-04-19T00:23:40.572Z,73.02
2019-04-19T00:26:06.222Z,73.07
2019-04-19T00:28:43.791Z,73.06
2019-04-19T00:31:21.363Z,72.96
2019-04-19T00:33:42.599Z,72.94
2019-04-19T00:36:07.428Z,72.79
2019-04-19T00:38:47.001Z,72.63
2019-04-19T00:41:28.225Z,72.83
2019-04-19T00:44:02.633Z,72.79
2019-04-19T00:46:34.020Z,72.70
2019-04-19T00:49:05.535Z,72.84
2019-04-19T00:51:35.551Z,72.86
2019-04-19T00:53:59.844Z,72.99
2019-04-19T00:56:31.235Z,72.99
2019-04-19T00:58:56.650Z,72.93
2019-04-19T01:01:23.179Z,72.93
2019-04-19T01:03:52.175Z,72.93
2019-04-19T01:06:21.922Z,73.28
2019-04-19T01:08:59.278Z,73.28
2019-04-19T01:11:32.919Z,73.22
2019-04-19T01:14:06.157Z,73.32
2019-04-19T01:16:31.245Z,73.56
2019-04-19T01:18:58.936Z,73.92
2019-04-19T01:21:21.900Z,73.58
2019-04-19T01:23:53.999Z,73.62
2019-04-19T01:26:21.523Z,73.68
2019-04-19T01:28:56.051Z,73.68
2019-04-19T01:31:25.534Z,73.92
2019-04-19T01:33:50.786Z,73.92
2019-04-19T01:36:28.879Z,74.71
2019-04-19T01:38:58.019Z,75.03
2019-04-19T01:41:33.597Z,74.39
2019-04-19T01:44:06.631Z,75.05
2019-04-19T01:46:56.313Z,74.95
2019-04-19T01:49:29.902Z,74.95
2019-04-19T01:52:13.447Z,74.72
2019-04-19T01:54:38.398Z,74.07
2019-04-19T01:56:58.217Z,74.35
2019-04-19T01:59:24.830Z,74.35
2019-04-19T02:02:00.462Z,74.56
2019-04-19T02:04:26.907Z,74.83
2019-04-19T02:06:54.789Z,75.00
2019-04-19T02:09:32.706Z,75.50
2019-04-19T02:12:13.297Z,75.42
2019-04-19T02:14:37.592Z,75.58
2019-04-19T02:17:02.550Z,75.58
2019-04-19T02:19:29.729Z,75.71
2019-04-19T02:22:02.100Z,76.20
2019-04-19T02:24:35.183Z,76.38
2019-04-19T02:27:03.397Z,76.89
2019-04-19T02:29:31.674Z,76.89
2019-04-19T02:47:38.384Z,76.68
2019-04-19T02:49:58.057Z,76.75
2019-04-19T02:52:33.271Z,77.13
2019-04-19T03:02:53.288Z,77.10
2019-04-19T03:05:23.014Z,77.01
2019-04-19T03:07:26.607Z,77.42
2019-04-19T03:09:55.677Z,77.42
2019-04-19T03:12:47.196Z,77.41
2019-04-19T03:15:09.806Z,77.56
2019-04-19T03:17:44.529Z,77.83
2019-04-19T03:20:15.245Z,77.94
2019-04-19T03:22:39.452Z,78.46
2019-04-19T03:25:15.208Z,78.14
2019-04-19T03:27:40.723Z,78.05
2019-04-19T03:30:14.352Z,78.32
2019-04-19T03:35:21.945Z,78.47
2019-04-19T03:37:50.002Z,78.39
2019-04-19T03:42:49.326Z,78.41
2019-04-19T03:45:19.082Z,78.41
2019-04-19T03:47:54.806Z,78.33
2019-04-19T03:50:20.014Z,78.41
2019-04-19T03:52:49.084Z,78.56
2019-04-19T03:55:20.302Z,78.72
2019-04-19T03:57:42.456Z,78.77
2019-04-19T04:00:02.871Z,78.75
2019-04-19T04:02:36.901Z,78.85
2019-04-19T04:05:05.992Z,79.02
2019-04-19T04:07:33.642Z,79.08
2019-04-19T04:10:04.965Z,79.36
2019-04-19T04:12:47.389Z,79.35
2019-04-19T04:15:19.703Z,79.40
2019-04-19T04:17:39.545Z,79.33
2019-04-19T04:20:09.395Z,79.38
2019-04-19T04:22:41.749Z,79.43
2019-04-19T04:25:16.382Z,79.56
2019-04-19T04:27:51.396Z,79.65
2019-04-19T04:30:17.512Z,79.44
2019-04-19T04:32:52.826Z,79.48
2019-04-19T04:35:24.302Z,79.79
2019-04-19T04:37:51.450Z,80.06
2019-04-19T04:40:10.949Z,80.10
2019-04-19T04:42:47.566Z,79.54
2019-04-19T04:45:27.930Z,79.54
2019-04-19T04:48:10.035Z,79.04
2019-04-19T04:51:01.771Z,78.79
2019-04-19T04:53:24.324Z,78.84
2019-04-19T04:55:58.154Z,78.42
2019-04-19T04:58:30.378Z,78.42
2019-04-19T05:01:01.472Z,77.63
2019-04-19T05:03:45.569Z,77.29
2019-04-19T05:06:20.012Z,77.29
2019-04-19T05:08:47.433Z,77.43
2019-04-19T05:11:16.569Z,77.21
2019-04-19T05:13:47.036Z,76.69
2019-04-19T05:16:25.195Z,76.69
2019-04-19T05:18:48.386Z,76.17
2019-04-19T05:21:19.150Z,76.17
2019-04-19T05:23:47.718Z,76.30
2019-04-19T05:26:29.207Z,76.20
2019-04-19T05:28:43.964Z,76.41
2019-04-19T05:31:03.326Z,76.41
2019-04-19T05:33:45.290Z,76.03
2019-04-19T05:36:18.202Z,75.84
2019-04-19T05:39:08.060Z,75.84
2019-04-19T05:41:29.963Z,76.11
2019-04-19T05:44:30.394Z,76.04
2019-04-19T05:46:54.560Z,76.00
2019-04-19T05:49:21.923Z,76.09
2019-04-19T05:52:06.191Z,76.02
2019-04-19T05:54:11.556Z,75.81
2019-04-19T05:56:46.006Z,75.49
2019-04-19T05:59:14.704Z,75.12
2019-04-19T06:01:57.881Z,74.81
2019-04-19T06:04:29.022Z,74.49
2019-04-19T06:06:56.603Z,74.21
2019-04-19T06:09:09.435Z,73.78
2019-04-19T06:11:41.278Z,73.31
2019-04-19T06:14:32.234Z,72.98
2019-04-19T06:16:55.126Z,72.65
2019-04-19T06:19:28.985Z,72.12
2019-04-19T06:21:53.143Z,71.91
2019-04-19T06:24:33.956Z,71.46
2019-04-19T06:27:13.311Z,71.10
2019-04-19T06:29:38.493Z,70.74
2019-04-19T06:32:07.431Z,70.56
2019-04-19T06:34:31.426Z,70.34
2019-04-19T06:36:55.008Z,69.94
2019-04-19T06:39:14.171Z,69.48
2019-04-19T06:41:50.314Z,69.19
2019-04-19T06:44:33.564Z,68.82
2019-04-19T06:46:58.484Z,68.09
2019-04-19T06:49:21.192Z,67.77
2019-04-19T06:51:52.607Z,67.18
2019-04-19T06:54:15.503Z,66.67
2019-04-19T06:56:53.717Z,66.08
2019-04-19T06:59:24.919Z,65.02
2019-04-19T07:01:49.708Z,64.12
2019-04-19T07:04:14.925Z,61.88
2019-04-19T07:07:07.934Z,60.94
2019-04-19T07:09:48.617Z,60.13
2019-04-19T07:12:06.724Z,59.55
2019-04-19T07:14:21.380Z,58.95
2019-04-19T07:17:07.305Z,58.60
2019-04-19T07:19:35.085Z,58.27
2019-04-19T07:22:05.161Z,57.61
2019-04-19T07:24:40.447Z,57.05
2019-04-19T07:27:05.938Z,56.47
2019-04-19T07:29:18.801Z,55.89
2019-04-19T07:31:47.431Z,55.65
2019-04-19T07:34:35.048Z,55.32
2019-04-19T07:37:04.947Z,55.21
2019-04-19T07:39:43.265Z,54.80
2019-04-19T07:42:15.728Z,54.86
2019-04-19T07:44:28.587Z,54.44
2019-04-19T07:47:16.308Z,53.45
2019-04-19T07:49:41.567Z,52.99
2019-04-19T07:52:14.023Z,52.16
2019-04-19T07:54:35.590Z,51.81
2019-04-19T07:57:37.313Z,51.49
2019-04-19T08:00:00.633Z,50.86
2019-04-19T08:02:36.024Z,50.96
2019-04-19T08:07:41.407Z,50.16
2019-04-19T08:12:31.674Z,50.09
2019-04-19T08:29:48.559Z,47.71
2019-04-19T08:32:09.378Z,47.63
2019-04-19T08:34:39.480Z,47.47
2019-04-19T08:37:18.383Z,47.02
2019-04-19T08:39:56.770Z,46.74
2019-04-19T08:42:32.023Z,46.44
2019-04-19T08:44:49.317Z,46.46
2019-04-19T08:47:35.588Z,46.67
2019-04-19T08:50:05.743Z,46.34
2019-04-19T08:52:35.488Z,46.40
2019-04-19T08:55:26.315Z,46.18
2019-04-19T08:57:34.752Z,45.98
2019-04-19T09:00:37.182Z,45.90
2019-04-19T09:02:50.356Z,45.53
2019-04-19T09:05:22.261Z,45.37
2019-04-19T09:07:59.721Z,45.13
2019-04-19T09:10:41.516Z,44.70
2019-04-19T09:13:06.792Z,44.21
2019-04-19T09:15:24.080Z,43.71
2019-04-19T09:20:34.081Z,43.44
2019-04-19T09:23:05.029Z,43.27
2019-04-19T09:25:42.042Z,43.37
2019-04-19T09:28:31.275Z,43.56
2019-04-19T09:30:49.150Z,43.22
2019-04-19T09:33:09.795Z,42.57
2019-04-19T09:35:38.607Z,42.24
2019-04-19T09:38:14.963Z,41.90
2019-04-19T09:40:44.532Z,42.15
2019-04-19T09:43:19.759Z,42.01
2019-04-19T09:45:36.265Z,41.31
2019-04-19T09:48:05.445Z,41.34
2019-04-19T09:50:52.358Z,40.69
2019-04-19T09:53:31.671Z,40.66
2019-04-19T09:55:55.500Z,40.59
2019-04-19T09:58:26.407Z,40.36
2019-04-19T10:00:36.776Z,39.93
2019-04-19T10:03:20.453Z,39.44
2019-04-19T10:05:36.849Z,38.88
2019-04-19T10:08:05.998Z,37.89
2019-04-19T10:10:34.766Z,37.62
2019-04-19T10:13:03.584Z,37.42
2019-04-19T10:15:36.434Z,36.85
2019-04-19T10:18:05.063Z,36.31
2019-04-19T10:20:54.639Z,36.24
2019-04-19T10:23:23.414Z,36.32
2019-04-19T10:25:57.866Z,35.88
2019-04-19T10:28:25.287Z,35.68
2019-04-19T10:30:58.960Z,35.19
2019-04-19T10:33:36.900Z,35.14
2019-04-19T10:35:57.780Z,34.64
2019-04-19T10:38:27.469Z,34.46
2019-04-19T10:40:56.130Z,34.44
2019-04-19T10:43:25.284Z,34.45
2019-04-19T10:45:54.205Z,34.50
2019-04-19T10:48:23.070Z,35.16
2019-04-19T10:50:55.051Z,35.26
2019-04-19T10:53:24.126Z,35.26
2019-04-19T10:55:54.402Z,35.63
2019-04-19T10:58:23.243Z,36.04
2019-04-19T11:00:51.972Z,36.14
2019-04-19T11:03:21.053Z,35.98
2019-04-19T11:05:50.400Z,35.26
2019-04-19T11:08:20.366Z,34.50
2019-04-19T11:10:49.613Z,34.25
2019-04-19T11:13:24.503Z,34.07
2019-04-19T11:15:48.682Z,33.98
2019-04-19T11:18:17.434Z,33.42
2019-04-19T11:20:49.628Z,32.71
2019-04-19T11:23:17.572Z,32.01
2019-04-19T11:25:47.694Z,32.25
2019-04-19T11:28:18.835Z,32.39
2019-04-19T11:30:49.153Z,31.74
2019-04-19T11:33:25.606Z,32.18
2019-04-19T11:35:55.476Z,31.73
2019-04-19T11:38:25.039Z,31.79
2019-04-19T11:40:55.266Z,32.07
2019-04-19T11:43:25.151Z,32.74
2019-04-19T11:45:53.957Z,32.94
2019-04-19T11:48:22.785Z,32.85
2019-04-19T11:50:51.878Z,32.63
2019-04-19T11:53:25.027Z,32.92
2019-04-19T11:55:56.212Z,32.84
2019-04-19T11:58:24.805Z,33.09
2019-04-19T12:00:58.489Z,33.65
2019-04-19T12:03:27.944Z,33.63
2019-04-19T12:05:56.669Z,32.53
2019-04-19T12:08:26.616Z,32.07
2019-04-19T12:10:56.587Z,30.95
2019-04-19T12:13:27.441Z,30.69
2019-04-19T12:15:56.843Z,31.28
2019-04-19T12:18:26.343Z,30.80
2019-04-19T12:20:55.454Z,30.41
2019-04-19T12:23:25.446Z,29.97
2019-04-19T12:25:55.506Z,29.15
2019-04-19T12:28:24.270Z,28.06
2019-04-19T12:30:57.055Z,26.11
2019-04-19T12:33:24.425Z,26.58
2019-04-19T12:35:53.080Z,25.61
2019-04-19T12:38:21.955Z,25.41
2019-04-19T12:40:52.415Z,25.75
2019-04-19T12:43:22.185Z,26.29
2019-04-19T12:45:52.519Z,27.65
2019-04-19T12:48:21.754Z,29.14
2019-04-19T12:50:51.478Z,28.99
2019-04-19T12:53:21.030Z,28.91
2019-04-19T12:55:50.188Z,27.43
2019-04-19T12:58:19.969Z,27.65
2019-04-19T13:00:56.291Z,28.50
2019-04-19T13:03:44.441Z,28.33
2019-04-19T13:06:27.376Z,28.03
2019-04-19T13:08:57.167Z,28.65
2019-04-19T13:11:27.245Z,28.87
2019-04-19T13:13:55.983Z,29.15
2019-04-19T13:16:24.645Z,28.93
2019-04-19T13:18:54.222Z,28.37
2019-04-19T13:21:24.143Z,28.27
2019-04-19T13:23:52.869Z,28.26
2019-04-19T13:26:21.459Z,27.75
2019-04-19T13:28:51.257Z,27.33
2019-04-19T13:31:21.069Z,27.21
2019-04-19T13:33:49.591Z,27.28
2019-04-19T13:36:22.188Z,26.60
2019-04-19T13:38:59.307Z,26.23
2019-04-19T13:41:48.792Z,26.49
2019-04-19T13:44:18.691Z,26.01
2019-04-19T13:46:48.585Z,25.61
2019-04-19T13:49:17.347Z,25.51
2019-04-19T13:51:46.135Z,25.49
2019-04-19T13:54:14.763Z,25.82
2019-04-19T13:56:47.276Z,26.23
2019-04-19T13:59:16.043Z,26.31
2019-04-19T14:01:44.566Z,23.66
2019-04-19T14:04:13.556Z,23.84
2019-04-19T14:06:42.380Z,23.52
2019-04-19T14:09:13.432Z,23.94
2019-04-19T14:11:42.847Z,24.59
2019-04-19T14:14:12.085Z,24.69
2019-04-19T14:16:41.896Z,24.84
2019-04-19T14:19:11.759Z,24.81
2019-04-19T14:21:40.824Z,25.64
2019-04-19T14:24:09.446Z,26.01
2019-04-19T14:26:45.072Z,26.73
2019-04-19T14:29:09.502Z,27.34
2019-04-19T14:31:39.938Z,27.74
2019-04-19T14:34:09.018Z,27.06
2019-04-19T14:36:38.073Z,27.08
2019-04-19T14:39:08.905Z,27.41
2019-04-19T14:41:38.021Z,27.61
2019-04-19T14:44:07.226Z,27.82
2019-04-19T14:46:36.697Z,27.77
2019-04-19T14:49:05.367Z,27.95
2019-04-19T14:51:37.036Z,27.92
2019-04-19T14:54:04.736Z,27.51
2019-04-19T14:56:34.057Z,27.40
2019-04-19T14:59:02.683Z,27.25
2019-04-19T15:01:49.350Z,27.39
2019-04-19T15:04:26.659Z,27.61
2019-04-19T15:06:55.653Z,27.56
2019-04-19T15:09:24.174Z,27.69
2019-04-19T15:11:52.750Z,27.70
2019-04-19T15:14:22.128Z,27.65
2019-04-19T15:16:51.988Z,27.09
2019-04-19T15:19:20.904Z,26.51
2019-04-19T15:21:50.082Z,26.91
2019-04-19T15:24:18.811Z,27.37
2019-04-19T15:26:47.461Z,26.89
2019-04-19T15:29:16.763Z,26.64
2019-04-19T15:31:46.216Z,26.61
2019-04-19T15:34:15.632Z,25.50
2019-04-19T15:36:44.246Z,26.19
2019-04-19T15:39:13.677Z,26.72
2019-04-19T15:41:42.275Z,27.12
2019-04-19T15:44:10.830Z,26.85
2019-04-19T15:46:39.732Z,26.41
2019-04-19T15:49:08.316Z,26.39
2019-04-19T15:51:39.709Z,25.61
2019-04-19T15:54:08.111Z,25.71
2019-04-19T15:56:36.708Z,26.63
2019-04-19T15:59:05.393Z,27.35
2019-04-19T16:01:53.873Z,27.40
2019-04-19T16:04:40.154Z,27.11
2019-04-19T16:07:10.379Z,27.23
2019-04-19T16:10:02.995Z,27.33
2019-04-19T16:12:27.254Z,28.28
2019-04-19T16:14:55.774Z,28.15
2019-04-19T16:17:25.145Z,27.88
2019-04-19T16:19:53.773Z,28.30
2019-04-19T16:22:22.503Z,28.44
2019-04-19T16:24:51.499Z,28.23
2019-04-19T16:27:20.850Z,28.49
2019-04-19T16:29:54.581Z,28.42
2019-04-19T16:32:21.082Z,28.58
2019-04-19T16:34:49.755Z,28.97
2019-04-19T16:37:18.670Z,29.31
2019-04-19T16:39:48.257Z,28.95
2019-04-19T16:42:16.852Z,28.61
2019-04-19T16:44:45.748Z,28.88
2019-04-19T16:47:15.261Z,29.02
2019-04-19T16:49:44.795Z,28.53
2019-04-19T16:52:13.445Z,28.41
2019-04-19T16:54:41.892Z,28.30
2019-04-19T16:57:16.833Z,28.12
2019-04-19T16:59:41.726Z,28.24
2019-04-19T17:02:11.053Z,28.10
2019-04-19T17:04:40.880Z,28.20
2019-04-19T17:07:09.520Z,28.35
2019-04-19T17:09:38.403Z,28.53
2019-04-19T17:12:07.549Z,28.60
2019-04-19T17:14:36.856Z,28.67
2019-04-19T17:17:07.217Z,28.87
2019-04-19T17:19:55.060Z,29.12
2019-04-19T17:22:26.713Z,29.33
2019-04-19T17:24:55.283Z,29.68
2019-04-19T17:27:27.688Z,30.08
2019-04-19T17:29:54.473Z,30.48
2019-04-19T17:32:23.991Z,30.87
2019-04-19T17:34:54.184Z,31.50
2019-04-19T17:37:24.201Z,32.50
2019-04-19T17:39:52.985Z,33.20
2019-04-19T17:42:22.328Z,33.99
2019-04-19T17:44:51.580Z,34.61
2019-04-19T17:47:24.397Z,35.29
2019-04-19T17:49:51.264Z,35.78
2019-04-19T17:52:26.340Z,36.11
2019-04-19T17:55:05.081Z,36.53
2019-04-19T17:57:21.002Z,36.90
2019-04-19T17:59:50.309Z,37.27
2019-04-19T18:02:19.106Z,37.61
2019-04-19T18:04:48.207Z,37.91
2019-04-19T18:07:16.728Z,38.30
2019-04-19T18:09:48.505Z,38.69
2019-04-19T18:12:15.512Z,38.84
2019-04-19T18:14:43.989Z,39.11
2019-04-19T18:17:12.606Z,39.42
2019-04-19T18:19:43.560Z,39.49
2019-04-19T18:22:20.103Z,39.64
2019-04-19T18:24:50.012Z,39.75
2019-04-19T18:27:18.076Z,39.95
2019-04-19T18:29:42.238Z,40.08
2019-04-19T18:32:25.873Z,40.22
2019-04-19T18:34:55.896Z,40.41
2019-04-19T18:37:29.602Z,40.49
2019-04-19T18:39:54.645Z,40.81
2019-04-19T18:42:23.945Z,40.86
2019-04-19T18:44:56.463Z,40.99
2019-04-19T18:47:22.916Z,41.21
2019-04-19T18:49:51.880Z,41.30
2019-04-19T18:52:33.510Z,41.51
2019-04-19T18:54:59.587Z,41.67
2019-04-19T18:57:22.240Z,42.04
2019-04-19T18:59:55.986Z,42.25
2019-04-19T19:02:24.989Z,42.44
2019-04-19T19:04:54.062Z,42.39
2019-04-19T19:07:25.128Z,42.47
2019-04-19T19:09:54.809Z,42.63
2019-04-19T19:12:22.457Z,42.75
2019-04-19T19:14:57.129Z,42.93
2019-04-19T19:17:22.337Z,43.13
2019-04-19T19:19:54.708Z,43.27
2019-04-19T19:22:31.343Z,43.23
2019-04-19T19:25:10.252Z,43.25
2019-04-19T19:27:26.882Z,43.30
2019-04-19T19:29:52.773Z,43.38
2019-04-19T19:32:22.488Z,43.68
2019-04-19T19:34:54.630Z,44.06
2019-04-19T19:37:26.757Z,44.42
2019-04-19T19:40:04.204Z,45.15
2019-04-19T19:42:56.223Z,45.77
2019-04-19T19:45:14.014Z,46.23
2019-04-19T19:48:17.546Z,46.77
2019-04-19T19:50:35.936Z,47.19
2019-04-19T19:53:07.538Z,47.54
2019-04-19T19:55:31.256Z,47.88
2019-04-19T19:57:56.070Z,48.09
2019-04-19T20:00:30.842Z,48.25
2019-04-19T20:03:01.543Z,48.22
2019-04-19T20:05:26.446Z,48.37
2019-04-19T20:07:51.755Z,48.27
2019-04-19T20:10:21.161Z,48.15
2019-04-19T20:12:55.710Z,48.16
2019-04-19T20:15:21.591Z,48.13
2019-04-19T20:17:56.334Z,48.10
2019-04-19T20:20:28.267Z,48.29
2019-04-19T20:22:52.458Z,48.21
2019-04-19T20:25:32.549Z,48.16
2019-04-19T20:27:54.975Z,47.91
2019-04-19T20:30:21.795Z,47.85
2019-04-19T20:32:54.511Z,47.70
2019-04-19T20:35:24.387Z,47.67
2019-04-19T20:37:55.513Z,47.57
2019-04-19T20:40:25.800Z,47.46
2019-04-19T20:43:16.254Z,47.29
2019-04-19T20:45:33.874Z,47.40
2019-04-19T20:47:56.400Z,47.48
2019-04-19T20:50:37.380Z,47.61
2019-04-19T20:53:14.667Z,47.67
2019-04-19T20:55:55.408Z,47.55
2019-04-19T20:58:27.746Z,47.55
2019-04-19T21:00:50.491Z,47.85
2019-04-19T21:03:24.963Z,47.97
2019-04-19T21:05:50.901Z,48.14
2019-04-19T21:08:22.799Z,48.15
2019-04-19T21:10:56.883Z,48.29
2019-04-19T21:13:21.315Z,48.26
2019-04-19T21:15:50.086Z,48.38
2019-04-19T21:18:23.513Z,48.25
2019-04-19T21:20:50.462Z,48.32
2019-04-19T21:23:25.512Z,48.56
2019-04-19T21:25:57.061Z,48.83
2019-04-19T21:28:24.159Z,48.96
2019-04-19T21:30:55.805Z,48.94
2019-04-19T21:33:22.531Z,48.91
2019-04-19T21:35:57.239Z,48.92
2019-04-19T21:38:24.776Z,49.13
2019-04-19T21:40:53.110Z,49.35
2019-04-19T21:43:29.592Z,49.50
2019-04-19T21:45:54.836Z,49.68
2019-04-19T21:48:26.855Z,50.10
2019-04-19T21:50:54.139Z,50.33
2019-04-19T21:53:22.858Z,51.05
2019-04-19T21:55:59.765Z,51.57
2019-04-19T21:58:24.620Z,52.10
2019-04-19T22:01:04.685Z,52.57
2019-04-19T22:03:30.723Z,52.66
2019-04-19T22:06:01.909Z,52.89
2019-04-19T22:08:34.269Z,53.06
2019-04-19T22:11:00.532Z,53.06
2019-04-19T22:13:32.019Z,53.62
2019-04-19T22:16:01.940Z,53.74
2019-04-19T22:18:34.431Z,54.12
2019-04-19T22:21:03.196Z,54.56
2019-04-19T22:23:30.877Z,54.85
2019-04-19T22:26:13.050Z,55.00
2019-04-19T22:28:29.982Z,55.00
2019-04-19T22:31:01.122Z,54.97
2019-04-19T22:33:30.247Z,55.41
2019-04-19T22:36:01.552Z,55.41
2019-04-19T22:38:29.650Z,55.50
2019-04-19T22:41:05.517Z,55.87
2019-04-19T22:43:28.888Z,56.75
2019-04-19T22:46:03.222Z,56.75
2019-04-19T22:48:29.321Z,56.74
2019-04-19T22:51:03.776Z,56.74
2019-04-19T22:53:33.723Z,57.59
2019-04-19T22:56:08.082Z,57.71
2019-04-19T22:58:31.693Z,58.23
2019-04-19T23:00:59.143Z,58.53
2019-04-19T23:03:33.639Z,58.76
2019-04-19T23:05:59.586Z,58.85
2019-04-19T23:08:33.058Z,58.87
2019-04-19T23:11:02.718Z,59.60
2019-04-19T23:13:29.488Z,59.60
2019-04-19T23:16:04.004Z,59.90
2019-04-19T23:18:29.392Z,60.07
2019-04-19T23:21:05.446Z,60.13
2019-04-19T23:23:31.708Z,60.96
2019-04-19T23:26:13.110Z,61.08
2019-04-19T23:28:34.029Z,61.23
2019-04-19T23:31:05.424Z,61.41
2019-04-19T23:33:30.264Z,61.45
2019-04-19T23:35:59.639Z,61.93
2019-04-19T23:38:30.793Z,62.26
2019-04-19T23:40:59.306Z,62.74
2019-04-19T23:43:34.203Z,63.07
2019-04-19T23:45:58.343Z,63.20
2019-04-19T23:48:31.501Z,63.32
2019-04-19T23:50:58.084Z,63.33
2019-04-19T23:53:30.768Z,63.36
2019-04-19T23:55:56.810Z,63.48
2019-04-19T23:58:29.425Z,63.50
